sensor_id;sensor_type;location;lat;lon;timestamp;temperature;humidity
48994;DHT22;34804;49.214;12.276;2023-02-19T00:01:28;9.00;85.20
48994;DHT22;34804;49.214;12.276;2023-02-19T00:03:59;9.00;85.10
48994;DHT22;34804;49.214;12.276;2023-02-19T00:06:27;9.10;84.80
48994;DHT22;34804;49.214;12.276;2023-02-19T00:08:55;9.10;84.80
48994;DHT22;34804;49.214;12.276;2023-02-19T00:11:24;9.10;84.90
48994;DHT22;34804;49.214;12.276;2023-02-19T00:13:53;9.10;84.90
48994;DHT22;34804;49.214;12.276;2023-02-19T00:16:26;9.10;84.90
48994;DHT22;34804;49.214;12.276;2023-02-19T00:18:54;9.10;84.60
48994;DHT22;34804;49.214;12.276;2023-02-19T00:21:22;9.10;84.30
48994;DHT22;34804;49.214;12.276;2023-02-19T00:23:51;9.10;84.60
48994;DHT22;34804;49.214;12.276;2023-02-19T00:26:19;9.10;84.60
48994;DHT22;34804;49.214;12.276;2023-02-19T00:28:47;9.10;84.50
48994;DHT22;34804;49.214;12.276;2023-02-19T00:31:20;9.20;84.50
48994;DHT22;34804;49.214;12.276;2023-02-19T00:33:49;9.10;84.80
48994;DHT22;34804;49.214;12.276;2023-02-19T00:36:17;9.10;84.80
48994;DHT22;34804;49.214;12.276;2023-02-19T00:38:45;9.10;84.60
48994;DHT22;34804;49.214;12.276;2023-02-19T00:41:13;9.10;84.80
48994;DHT22;34804;49.214;12.276;2023-02-19T00:44:03;9.10;85.00
48994;DHT22;34804;49.214;12.276;2023-02-19T00:46:36;9.10;85.40
48994;DHT22;34804;49.214;12.276;2023-02-19T00:49:04;9.00;85.50
48994;DHT22;34804;49.214;12.276;2023-02-19T00:51:34;9.00;85.80
48994;DHT22;34804;49.214;12.276;2023-02-19T00:54:01;9.00;85.90
48994;DHT22;34804;49.214;12.276;2023-02-19T00:56:28;9.00;85.60
48994;DHT22;34804;49.214;12.276;2023-02-19T00:58:55;9.00;85.90
48994;DHT22;34804;49.214;12.276;2023-02-19T01:01:22;9.00;86.30
48994;DHT22;34804;49.214;12.276;2023-02-19T01:03:49;9.00;86.40
48994;DHT22;34804;49.214;12.276;2023-02-19T01:06:17;8.90;86.90
48994;DHT22;34804;49.214;12.276;2023-02-19T01:08:45;8.80;87.80
48994;DHT22;34804;49.214;12.276;2023-02-19T01:11:12;8.80;88.50
48994;DHT22;34804;49.214;12.276;2023-02-19T01:13:39;8.60;89.10
48994;DHT22;34804;49.214;12.276;2023-02-19T01:16:14;8.50;90.00
48994;DHT22;34804;49.214;12.276;2023-02-19T01:18:41;8.40;90.40
48994;DHT22;34804;49.214;12.276;2023-02-19T01:21:12;8.40;90.60
48994;DHT22;34804;49.214;12.276;2023-02-19T01:23:39;8.40;90.90
48994;DHT22;34804;49.214;12.276;2023-02-19T01:26:07;8.30;91.10
48994;DHT22;34804;49.214;12.276;2023-02-19T01:28:34;8.30;91.10
48994;DHT22;34804;49.214;12.276;2023-02-19T01:31:03;8.30;91.20
48994;DHT22;34804;49.214;12.276;2023-02-19T01:33:30;8.30;91.30
48994;DHT22;34804;49.214;12.276;2023-02-19T01:35:58;8.30;91.60
48994;DHT22;34804;49.214;12.276;2023-02-19T01:38:24;8.30;91.70
48994;DHT22;34804;49.214;12.276;2023-02-19T01:41:00;8.30;92.00
48994;DHT22;34804;49.214;12.276;2023-02-19T01:43:28;8.20;92.40
48994;DHT22;34804;49.214;12.276;2023-02-19T01:45:54;8.20;92.70
48994;DHT22;34804;49.214;12.276;2023-02-19T01:48:37;8.20;92.90
48994;DHT22;34804;49.214;12.276;2023-02-19T01:51:09;8.10;93.10
48994;DHT22;34804;49.214;12.276;2023-02-19T01:53:39;8.10;93.30
48994;DHT22;34804;49.214;12.276;2023-02-19T01:56:07;8.10;93.30
48994;DHT22;34804;49.214;12.276;2023-02-19T01:58:35;8.10;93.60
48994;DHT22;34804;49.214;12.276;2023-02-19T02:01:05;8.10;93.70
48994;DHT22;34804;49.214;12.276;2023-02-19T02:03:34;8.10;93.90
48994;DHT22;34804;49.214;12.276;2023-02-19T02:08:33;8.00;94.20
48994;DHT22;34804;49.214;12.276;2023-02-19T02:11:19;8.00;94.30
48994;DHT22;34804;49.214;12.276;2023-02-19T02:13:46;8.00;94.40
48994;DHT22;34804;49.214;12.276;2023-02-19T02:22:20;8.00;94.50
48994;DHT22;34804;49.214;12.276;2023-02-19T02:25:27;8.00;94.50
48994;DHT22;34804;49.214;12.276;2023-02-19T02:28:19;8.00;94.60
48994;DHT22;34804;49.214;12.276;2023-02-19T02:30:49;8.00;94.50
48994;DHT22;34804;49.214;12.276;2023-02-19T02:33:29;8.00;94.40
48994;DHT22;34804;49.214;12.276;2023-02-19T02:36:07;8.00;94.40
48994;DHT22;34804;49.214;12.276;2023-02-19T02:38:39;8.00;94.20
48994;DHT22;34804;49.214;12.276;2023-02-19T02:41:07;8.00;94.30
48994;DHT22;34804;49.214;12.276;2023-02-19T02:43:35;8.00;94.40
48994;DHT22;34804;49.214;12.276;2023-02-19T02:46:02;8.00;94.40
48994;DHT22;34804;49.214;12.276;2023-02-19T02:48:44;8.00;94.30
48994;DHT22;34804;49.214;12.276;2023-02-19T02:51:29;7.90;94.50
48994;DHT22;34804;49.214;12.276;2023-02-19T02:54:05;7.90;94.60
48994;DHT22;34804;49.214;12.276;2023-02-19T02:56:52;7.90;94.70
48994;DHT22;34804;49.214;12.276;2023-02-19T02:59:23;8.00;94.70
48994;DHT22;34804;49.214;12.276;2023-02-19T03:02:03;7.90;94.60
48994;DHT22;34804;49.214;12.276;2023-02-19T03:05:03;8.00;94.60
48994;DHT22;34804;49.214;12.276;2023-02-19T03:08:05;8.00;94.60
48994;DHT22;34804;49.214;12.276;2023-02-19T03:13:22;7.90;94.80
48994;DHT22;34804;49.214;12.276;2023-02-19T03:16:19;7.90;94.90
48994;DHT22;34804;49.214;12.276;2023-02-19T03:19:11;7.90;95.00
48994;DHT22;34804;49.214;12.276;2023-02-19T03:21:58;7.90;95.10
48994;DHT22;34804;49.214;12.276;2023-02-19T03:24:30;7.90;95.10
48994;DHT22;34804;49.214;12.276;2023-02-19T03:27:19;7.90;95.10
48994;DHT22;34804;49.214;12.276;2023-02-19T03:29:49;7.90;95.20
48994;DHT22;34804;49.214;12.276;2023-02-19T03:32:24;7.90;95.10
48994;DHT22;34804;49.214;12.276;2023-02-19T03:34:58;7.90;95.20
48994;DHT22;34804;49.214;12.276;2023-02-19T03:37:36;7.90;95.10
48994;DHT22;34804;49.214;12.276;2023-02-19T03:40:05;7.90;95.00
48994;DHT22;34804;49.214;12.276;2023-02-19T03:46:00;8.00;94.70
48994;DHT22;34804;49.214;12.276;2023-02-19T03:48:37;8.00;94.60
48994;DHT22;34804;49.214;12.276;2023-02-19T03:51:12;8.10;94.40
48994;DHT22;34804;49.214;12.276;2023-02-19T03:56:17;8.00;94.50
48994;DHT22;34804;49.214;12.276;2023-02-19T04:01:40;8.00;94.60
48994;DHT22;34804;49.214;12.276;2023-02-19T04:04:22;8.00;94.60
48994;DHT22;34804;49.214;12.276;2023-02-19T04:06:55;8.00;94.40
48994;DHT22;34804;49.214;12.276;2023-02-19T04:09:25;8.00;94.40
48994;DHT22;34804;49.214;12.276;2023-02-19T04:11:55;8.00;94.30
48994;DHT22;34804;49.214;12.276;2023-02-19T04:14:43;8.00;94.30
48994;DHT22;34804;49.214;12.276;2023-02-19T04:17:23;8.10;94.20
48994;DHT22;34804;49.214;12.276;2023-02-19T04:19:52;8.10;93.90
48994;DHT22;34804;49.214;12.276;2023-02-19T04:22:21;8.10;93.60
48994;DHT22;34804;49.214;12.276;2023-02-19T04:24:51;8.10;93.70
48994;DHT22;34804;49.214;12.276;2023-02-19T04:27:18;8.10;93.50
48994;DHT22;34804;49.214;12.276;2023-02-19T04:29:45;8.10;93.50
48994;DHT22;34804;49.214;12.276;2023-02-19T04:32:12;8.10;93.40
48994;DHT22;34804;49.214;12.276;2023-02-19T04:34:39;8.20;93.20
48994;DHT22;34804;49.214;12.276;2023-02-19T04:37:06;8.20;92.90
48994;DHT22;34804;49.214;12.276;2023-02-19T04:39:33;8.20;93.00
48994;DHT22;34804;49.214;12.276;2023-02-19T04:42:00;8.20;92.70
48994;DHT22;34804;49.214;12.276;2023-02-19T04:44:26;8.20;92.60
48994;DHT22;34804;49.214;12.276;2023-02-19T04:46:53;8.20;92.50
48994;DHT22;34804;49.214;12.276;2023-02-19T04:49:20;8.30;92.40
48994;DHT22;34804;49.214;12.276;2023-02-19T04:51:47;8.30;92.40
48994;DHT22;34804;49.214;12.276;2023-02-19T04:54:14;8.30;92.00
48994;DHT22;34804;49.214;12.276;2023-02-19T04:56:40;8.30;91.80
48994;DHT22;34804;49.214;12.276;2023-02-19T04:59:07;8.40;91.20
48994;DHT22;34804;49.214;12.276;2023-02-19T05:01:34;8.30;91.50
48994;DHT22;34804;49.214;12.276;2023-02-19T05:04:01;8.30;91.70
48994;DHT22;34804;49.214;12.276;2023-02-19T05:06:28;8.20;92.20
48994;DHT22;34804;49.214;12.276;2023-02-19T05:08:54;8.10;92.50
48994;DHT22;34804;49.214;12.276;2023-02-19T05:11:21;8.20;92.00
48994;DHT22;34804;49.214;12.276;2023-02-19T05:13:49;8.10;91.90
48994;DHT22;34804;49.214;12.276;2023-02-19T05:16:16;8.20;91.70
48994;DHT22;34804;49.214;12.276;2023-02-19T05:18:44;8.20;91.80
48994;DHT22;34804;49.214;12.276;2023-02-19T05:21:12;8.20;91.70
48994;DHT22;34804;49.214;12.276;2023-02-19T05:23:39;8.10;91.80
48994;DHT22;34804;49.214;12.276;2023-02-19T05:26:13;8.10;91.90
48994;DHT22;34804;49.214;12.276;2023-02-19T05:28:44;8.20;91.60
48994;DHT22;34804;49.214;12.276;2023-02-19T05:31:11;8.20;91.40
48994;DHT22;34804;49.214;12.276;2023-02-19T05:33:39;8.10;91.50
48994;DHT22;34804;49.214;12.276;2023-02-19T05:36:10;8.20;91.40
48994;DHT22;34804;49.214;12.276;2023-02-19T05:38:38;8.20;91.30
48994;DHT22;34804;49.214;12.276;2023-02-19T05:41:26;8.10;91.60
48994;DHT22;34804;49.214;12.276;2023-02-19T05:43:53;8.10;91.70
48994;DHT22;34804;49.214;12.276;2023-02-19T05:46:23;8.10;91.60
48994;DHT22;34804;49.214;12.276;2023-02-19T05:48:51;8.10;91.40
48994;DHT22;34804;49.214;12.276;2023-02-19T05:51:20;8.10;91.30
48994;DHT22;34804;49.214;12.276;2023-02-19T05:53:47;8.00;91.70
48994;DHT22;34804;49.214;12.276;2023-02-19T05:56:37;8.10;91.70
48994;DHT22;34804;49.214;12.276;2023-02-19T05:59:13;8.10;91.30
48994;DHT22;34804;49.214;12.276;2023-02-19T06:01:40;8.10;91.40
48994;DHT22;34804;49.214;12.276;2023-02-19T06:04:09;8.10;91.20
48994;DHT22;34804;49.214;12.276;2023-02-19T06:06:36;8.10;90.90
48994;DHT22;34804;49.214;12.276;2023-02-19T06:09:05;8.10;90.60
48994;DHT22;34804;49.214;12.276;2023-02-19T06:11:32;8.00;90.90
48994;DHT22;34804;49.214;12.276;2023-02-19T06:13:59;8.10;90.40
48994;DHT22;34804;49.214;12.276;2023-02-19T06:16:26;8.10;91.00
48994;DHT22;34804;49.214;12.276;2023-02-19T06:18:53;8.00;90.80
48994;DHT22;34804;49.214;12.276;2023-02-19T06:21:20;8.00;90.80
48994;DHT22;34804;49.214;12.276;2023-02-19T06:23:47;8.10;90.20
48994;DHT22;34804;49.214;12.276;2023-02-19T06:26:18;8.10;90.30
48994;DHT22;34804;49.214;12.276;2023-02-19T06:28:46;8.10;89.90
48994;DHT22;34804;49.214;12.276;2023-02-19T06:31:14;8.10;90.10
48994;DHT22;34804;49.214;12.276;2023-02-19T06:33:41;8.10;89.70
48994;DHT22;34804;49.214;12.276;2023-02-19T06:36:13;8.20;89.10
48994;DHT22;34804;49.214;12.276;2023-02-19T06:38:41;8.20;89.40
48994;DHT22;34804;49.214;12.276;2023-02-19T06:41:08;8.20;89.10
48994;DHT22;34804;49.214;12.276;2023-02-19T06:43:36;8.10;89.30
48994;DHT22;34804;49.214;12.276;2023-02-19T06:46:05;8.20;88.60
48994;DHT22;34804;49.214;12.276;2023-02-19T06:48:32;8.30;88.60
48994;DHT22;34804;49.214;12.276;2023-02-19T06:50:59;8.20;88.80
48994;DHT22;34804;49.214;12.276;2023-02-19T06:53:26;8.20;88.70
48994;DHT22;34804;49.214;12.276;2023-02-19T06:56:02;8.20;88.30
48994;DHT22;34804;49.214;12.276;2023-02-19T06:58:30;8.20;88.60
48994;DHT22;34804;49.214;12.276;2023-02-19T07:00:57;8.20;88.60
48994;DHT22;34804;49.214;12.276;2023-02-19T07:03:25;8.20;88.70
48994;DHT22;34804;49.214;12.276;2023-02-19T07:05:52;8.20;88.80
48994;DHT22;34804;49.214;12.276;2023-02-19T07:08:19;8.20;88.10
48994;DHT22;34804;49.214;12.276;2023-02-19T07:10:56;8.20;88.50
48994;DHT22;34804;49.214;12.276;2023-02-19T07:13:26;8.20;88.50
48994;DHT22;34804;49.214;12.276;2023-02-19T07:16:02;8.30;87.70
48994;DHT22;34804;49.214;12.276;2023-02-19T07:18:30;8.40;87.30
48994;DHT22;34804;49.214;12.276;2023-02-19T07:21:08;8.40;87.30
48994;DHT22;34804;49.214;12.276;2023-02-19T07:23:36;8.30;87.50
48994;DHT22;34804;49.214;12.276;2023-02-19T07:26:03;8.30;87.20
48994;DHT22;34804;49.214;12.276;2023-02-19T07:28:30;8.40;87.20
48994;DHT22;34804;49.214;12.276;2023-02-19T07:31:01;8.40;87.00
48994;DHT22;34804;49.214;12.276;2023-02-19T07:33:29;8.40;87.20
48994;DHT22;34804;49.214;12.276;2023-02-19T07:35:56;8.50;86.60
48994;DHT22;34804;49.214;12.276;2023-02-19T07:38:23;8.40;87.20
48994;DHT22;34804;49.214;12.276;2023-02-19T07:40:59;8.50;87.40
48994;DHT22;34804;49.214;12.276;2023-02-19T07:43:28;8.50;87.40
48994;DHT22;34804;49.214;12.276;2023-02-19T07:45:55;8.50;86.60
48994;DHT22;34804;49.214;12.276;2023-02-19T07:48:22;8.60;87.20
48994;DHT22;34804;49.214;12.276;2023-02-19T07:50:59;8.70;86.60
48994;DHT22;34804;49.214;12.276;2023-02-19T07:53:27;8.60;87.20
48994;DHT22;34804;49.214;12.276;2023-02-19T07:56:01;8.60;86.90
48994;DHT22;34804;49.214;12.276;2023-02-19T07:58:28;8.50;87.10
48994;DHT22;34804;49.214;12.276;2023-02-19T08:00:56;8.50;87.20
48994;DHT22;34804;49.214;12.276;2023-02-19T08:03:23;8.50;86.50
48994;DHT22;34804;49.214;12.276;2023-02-19T08:05:49;8.50;86.70
48994;DHT22;34804;49.214;12.276;2023-02-19T08:08:19;8.50;87.60
48994;DHT22;34804;49.214;12.276;2023-02-19T08:10:46;8.50;86.40
48994;DHT22;34804;49.214;12.276;2023-02-19T08:13:31;8.50;86.70
48994;DHT22;34804;49.214;12.276;2023-02-19T08:18:47;8.50;86.30
48994;DHT22;34804;49.214;12.276;2023-02-19T08:21:14;8.50;86.40
48994;DHT22;34804;49.214;12.276;2023-02-19T08:23:43;8.50;86.40
48994;DHT22;34804;49.214;12.276;2023-02-19T08:26:11;8.50;85.70
48994;DHT22;34804;49.214;12.276;2023-02-19T08:28:39;8.50;87.00
48994;DHT22;34804;49.214;12.276;2023-02-19T08:31:07;8.50;85.70
48994;DHT22;34804;49.214;12.276;2023-02-19T08:33:35;8.50;86.50
48994;DHT22;34804;49.214;12.276;2023-02-19T08:36:04;8.60;86.30
48994;DHT22;34804;49.214;12.276;2023-02-19T08:38:32;8.60;85.60
48994;DHT22;34804;49.214;12.276;2023-02-19T08:41:09;8.60;85.30
48994;DHT22;34804;49.214;12.276;2023-02-19T08:43:37;8.70;85.70
48994;DHT22;34804;49.214;12.276;2023-02-19T08:46:04;8.70;85.50
48994;DHT22;34804;49.214;12.276;2023-02-19T08:48:32;8.80;85.40
48994;DHT22;34804;49.214;12.276;2023-02-19T08:51:02;8.80;85.40
48994;DHT22;34804;49.214;12.276;2023-02-19T08:53:30;8.80;85.30
48994;DHT22;34804;49.214;12.276;2023-02-19T08:55:57;8.80;85.20
48994;DHT22;34804;49.214;12.276;2023-02-19T08:58:24;8.80;84.90
48994;DHT22;34804;49.214;12.276;2023-02-19T09:00:52;8.80;84.40
48994;DHT22;34804;49.214;12.276;2023-02-19T09:03:18;8.80;84.10
48994;DHT22;34804;49.214;12.276;2023-02-19T09:05:45;8.90;83.90
48994;DHT22;34804;49.214;12.276;2023-02-19T09:08:12;8.90;83.80
48994;DHT22;34804;49.214;12.276;2023-02-19T09:10:39;8.80;84.30
48994;DHT22;34804;49.214;12.276;2023-02-19T09:13:06;8.90;84.10
48994;DHT22;34804;49.214;12.276;2023-02-19T09:15:33;8.90;83.80
48994;DHT22;34804;49.214;12.276;2023-02-19T09:18:00;8.90;84.10
48994;DHT22;34804;49.214;12.276;2023-02-19T09:20:27;8.90;84.00
48994;DHT22;34804;49.214;12.276;2023-02-19T09:22:58;8.90;84.00
48994;DHT22;34804;49.214;12.276;2023-02-19T09:25:25;9.00;83.50
48994;DHT22;34804;49.214;12.276;2023-02-19T09:27:55;9.00;84.00
48994;DHT22;34804;49.214;12.276;2023-02-19T09:30:22;8.90;83.80
48994;DHT22;34804;49.214;12.276;2023-02-19T09:32:49;8.90;83.60
48994;DHT22;34804;49.214;12.276;2023-02-19T09:35:15;9.00;83.10
48994;DHT22;34804;49.214;12.276;2023-02-19T09:37:42;9.00;82.50
48994;DHT22;34804;49.214;12.276;2023-02-19T09:40:09;8.90;83.60
48994;DHT22;34804;49.214;12.276;2023-02-19T09:42:39;8.90;84.10
48994;DHT22;34804;49.214;12.276;2023-02-19T09:45:06;8.90;83.60
48994;DHT22;34804;49.214;12.276;2023-02-19T09:47:33;8.90;83.50
48994;DHT22;34804;49.214;12.276;2023-02-19T09:50:08;9.00;84.00
48994;DHT22;34804;49.214;12.276;2023-02-19T09:52:46;8.90;83.90
48994;DHT22;34804;49.214;12.276;2023-02-19T09:55:16;8.90;84.30
48994;DHT22;34804;49.214;12.276;2023-02-19T09:57:43;9.00;84.00
48994;DHT22;34804;49.214;12.276;2023-02-19T10:00:19;9.00;83.80
48994;DHT22;34804;49.214;12.276;2023-02-19T10:02:50;9.00;84.10
48994;DHT22;34804;49.214;12.276;2023-02-19T10:05:18;9.10;83.60
48994;DHT22;34804;49.214;12.276;2023-02-19T10:07:48;9.20;83.40
48994;DHT22;34804;49.214;12.276;2023-02-19T10:10:34;9.10;82.70
48994;DHT22;34804;49.214;12.276;2023-02-19T10:13:17;9.10;83.60
48994;DHT22;34804;49.214;12.276;2023-02-19T10:15:47;9.10;83.50
48994;DHT22;34804;49.214;12.276;2023-02-19T10:18:17;9.10;83.00
48994;DHT22;34804;49.214;12.276;2023-02-19T10:20:45;9.10;83.00
48994;DHT22;34804;49.214;12.276;2023-02-19T10:23:14;9.20;82.80
48994;DHT22;34804;49.214;12.276;2023-02-19T10:25:59;9.20;82.50
48994;DHT22;34804;49.214;12.276;2023-02-19T10:28:32;9.30;82.70
48994;DHT22;34804;49.214;12.276;2023-02-19T10:31:01;9.30;82.70
48994;DHT22;34804;49.214;12.276;2023-02-19T10:33:28;9.30;82.00
48994;DHT22;34804;49.214;12.276;2023-02-19T10:36:01;9.40;81.50
48994;DHT22;34804;49.214;12.276;2023-02-19T10:38:37;9.30;82.40
48994;DHT22;34804;49.214;12.276;2023-02-19T10:41:13;9.30;82.20
48994;DHT22;34804;49.214;12.276;2023-02-19T10:43:44;9.30;82.40
48994;DHT22;34804;49.214;12.276;2023-02-19T10:46:19;9.40;81.70
48994;DHT22;34804;49.214;12.276;2023-02-19T10:48:53;9.50;82.70
48994;DHT22;34804;49.214;12.276;2023-02-19T10:51:24;9.60;81.50
48994;DHT22;34804;49.214;12.276;2023-02-19T10:54:26;9.70;80.80
48994;DHT22;34804;49.214;12.276;2023-02-19T10:56:52;9.80;82.20
48994;DHT22;34804;49.214;12.276;2023-02-19T10:59:27;9.80;80.90
48994;DHT22;34804;49.214;12.276;2023-02-19T11:02:37;9.80;80.60
48994;DHT22;34804;49.214;12.276;2023-02-19T11:05:10;9.90;80.30
48994;DHT22;34804;49.214;12.276;2023-02-19T11:07:52;9.90;81.50
48994;DHT22;34804;49.214;12.276;2023-02-19T11:10:38;9.80;80.60
48994;DHT22;34804;49.214;12.276;2023-02-19T11:13:12;9.60;81.10
48994;DHT22;34804;49.214;12.276;2023-02-19T11:15:40;9.40;82.10
48994;DHT22;34804;49.214;12.276;2023-02-19T11:20:48;9.40;81.80
48994;DHT22;34804;49.214;12.276;2023-02-19T11:23:18;9.40;83.10
48994;DHT22;34804;49.214;12.276;2023-02-19T11:25:48;9.20;84.20
48994;DHT22;34804;49.214;12.276;2023-02-19T11:33:54;9.00;84.40
48994;DHT22;34804;49.214;12.276;2023-02-19T11:36:33;9.10;85.30
48994;DHT22;34804;49.214;12.276;2023-02-19T11:39:20;9.10;84.40
48994;DHT22;34804;49.214;12.276;2023-02-19T11:48:08;9.30;84.10
48994;DHT22;34804;49.214;12.276;2023-02-19T11:53:56;9.50;83.70
48994;DHT22;34804;49.214;12.276;2023-02-19T11:56:35;9.50;83.00
48994;DHT22;34804;49.214;12.276;2023-02-19T11:59:25;9.60;82.30
48994;DHT22;34804;49.214;12.276;2023-02-19T12:02:21;9.70;82.70
48994;DHT22;34804;49.214;12.276;2023-02-19T12:05:06;9.60;82.40
48994;DHT22;34804;49.214;12.276;2023-02-19T12:10:47;9.70;82.80
48994;DHT22;34804;49.214;12.276;2023-02-19T12:21:41;9.70;82.90
48994;DHT22;34804;49.214;12.276;2023-02-19T12:24:26;9.80;82.30
48994;DHT22;34804;49.214;12.276;2023-02-19T12:27:14;10.00;82.50
48994;DHT22;34804;49.214;12.276;2023-02-19T12:32:34;9.80;82.50
48994;DHT22;34804;49.214;12.276;2023-02-19T12:35:22;9.60;83.10
48994;DHT22;34804;49.214;12.276;2023-02-19T12:38:21;9.50;82.80
48994;DHT22;34804;49.214;12.276;2023-02-19T12:40:59;9.60;83.70
48994;DHT22;34804;49.214;12.276;2023-02-19T12:43:28;9.80;82.90
48994;DHT22;34804;49.214;12.276;2023-02-19T12:46:00;9.90;81.40
48994;DHT22;34804;49.214;12.276;2023-02-19T12:48:41;9.90;81.50
48994;DHT22;34804;49.214;12.276;2023-02-19T12:54:10;9.70;82.30
48994;DHT22;34804;49.214;12.276;2023-02-19T12:56:47;9.80;81.60
48994;DHT22;34804;49.214;12.276;2023-02-19T12:59:39;10.90;80.60
48994;DHT22;34804;49.214;12.276;2023-02-19T13:02:18;12.00;77.50
48994;DHT22;34804;49.214;12.276;2023-02-19T13:04:54;12.60;73.90
48994;DHT22;34804;49.214;12.276;2023-02-19T13:07:34;13.10;71.90
48994;DHT22;34804;49.214;12.276;2023-02-19T13:12:54;12.90;71.70
48994;DHT22;34804;49.214;12.276;2023-02-19T13:15:41;12.00;72.70
48994;DHT22;34804;49.214;12.276;2023-02-19T13:18:38;10.90;77.20
48994;DHT22;34804;49.214;12.276;2023-02-19T13:21:01;10.60;77.90
48994;DHT22;34804;49.214;12.276;2023-02-19T13:23:36;10.60;79.80
48994;DHT22;34804;49.214;12.276;2023-02-19T13:29:39;10.20;80.80
48994;DHT22;34804;49.214;12.276;2023-02-19T13:32:43;10.10;81.10
48994;DHT22;34804;49.214;12.276;2023-02-19T13:37:48;9.80;82.40
48994;DHT22;34804;49.214;12.276;2023-02-19T13:40:19;9.80;81.50
48994;DHT22;34804;49.214;12.276;2023-02-19T13:42:53;9.80;81.80
48994;DHT22;34804;49.214;12.276;2023-02-19T13:45:22;10.20;81.80
48994;DHT22;34804;49.214;12.276;2023-02-19T13:50:32;10.30;79.80
48994;DHT22;34804;49.214;12.276;2023-02-19T13:53:01;10.20;79.50
48994;DHT22;34804;49.214;12.276;2023-02-19T13:55:44;10.10;79.30
48994;DHT22;34804;49.214;12.276;2023-02-19T14:01:00;9.80;81.90
48994;DHT22;34804;49.214;12.276;2023-02-19T14:06:05;9.80;80.20
48994;DHT22;34804;49.214;12.276;2023-02-19T14:08:58;9.80;80.80
48994;DHT22;34804;49.214;12.276;2023-02-19T14:16:55;9.80;80.70
48994;DHT22;34804;49.214;12.276;2023-02-19T14:25:41;9.90;81.20
48994;DHT22;34804;49.214;12.276;2023-02-19T14:30:47;9.90;80.50
48994;DHT22;34804;49.214;12.276;2023-02-19T14:33:17;9.90;79.20
48994;DHT22;34804;49.214;12.276;2023-02-19T14:35:46;10.00;80.60
48994;DHT22;34804;49.214;12.276;2023-02-19T14:38:31;10.30;79.80
48994;DHT22;34804;49.214;12.276;2023-02-19T14:40:59;11.10;78.40
48994;DHT22;34804;49.214;12.276;2023-02-19T14:43:26;11.10;77.00
48994;DHT22;34804;49.214;12.276;2023-02-19T14:45:57;10.60;78.00
48994;DHT22;34804;49.214;12.276;2023-02-19T14:48:37;10.40;80.00
48994;DHT22;34804;49.214;12.276;2023-02-19T14:51:09;10.20;80.70
48994;DHT22;34804;49.214;12.276;2023-02-19T14:53:41;10.00;80.80
48994;DHT22;34804;49.214;12.276;2023-02-19T14:56:27;9.90;82.50
48994;DHT22;34804;49.214;12.276;2023-02-19T14:59:20;9.70;82.10
48994;DHT22;34804;49.214;12.276;2023-02-19T15:04:43;9.60;83.20
48994;DHT22;34804;49.214;12.276;2023-02-19T15:07:19;9.50;83.80
48994;DHT22;34804;49.214;12.276;2023-02-19T15:09:48;9.40;83.60
48994;DHT22;34804;49.214;12.276;2023-02-19T15:12:20;9.50;83.80
48994;DHT22;34804;49.214;12.276;2023-02-19T15:14:49;9.60;83.70
48994;DHT22;34804;49.214;12.276;2023-02-19T15:17:27;9.50;83.30
48994;DHT22;34804;49.214;12.276;2023-02-19T15:19:55;9.40;83.90
48994;DHT22;34804;49.214;12.276;2023-02-19T15:22:25;9.30;83.90
48994;DHT22;34804;49.214;12.276;2023-02-19T15:24:54;9.20;84.40
48994;DHT22;34804;49.214;12.276;2023-02-19T15:27:23;9.20;84.70
48994;DHT22;34804;49.214;12.276;2023-02-19T15:29:51;9.20;84.20
48994;DHT22;34804;49.214;12.276;2023-02-19T15:32:25;9.30;82.90
48994;DHT22;34804;49.214;12.276;2023-02-19T15:35:00;9.20;83.70
48994;DHT22;34804;49.214;12.276;2023-02-19T15:37:29;9.20;84.10
48994;DHT22;34804;49.214;12.276;2023-02-19T15:39:59;9.10;82.70
48994;DHT22;34804;49.214;12.276;2023-02-19T15:42:30;9.10;83.10
48994;DHT22;34804;49.214;12.276;2023-02-19T15:45:19;9.20;83.30
48994;DHT22;34804;49.214;12.276;2023-02-19T15:47:56;9.10;83.20
48994;DHT22;34804;49.214;12.276;2023-02-19T15:50:30;9.20;83.30
48994;DHT22;34804;49.214;12.276;2023-02-19T15:55:37;9.20;82.90
48994;DHT22;34804;49.214;12.276;2023-02-19T15:58:29;9.10;82.80
48994;DHT22;34804;49.214;12.276;2023-02-19T16:01:04;9.00;83.10
48994;DHT22;34804;49.214;12.276;2023-02-19T16:03:34;8.90;83.60
48994;DHT22;34804;49.214;12.276;2023-02-19T16:08:38;8.90;83.30
48994;DHT22;34804;49.214;12.276;2023-02-19T16:11:26;8.80;83.70
48994;DHT22;34804;49.214;12.276;2023-02-19T16:14:16;8.80;83.70
48994;DHT22;34804;49.214;12.276;2023-02-19T16:16:46;8.80;83.70
48994;DHT22;34804;49.214;12.276;2023-02-19T16:19:22;8.80;83.30
48994;DHT22;34804;49.214;12.276;2023-02-19T16:21:52;8.80;83.00
48994;DHT22;34804;49.214;12.276;2023-02-19T16:24:36;8.80;83.60
48994;DHT22;34804;49.214;12.276;2023-02-19T16:27:03;8.70;83.30
48994;DHT22;34804;49.214;12.276;2023-02-19T16:29:31;8.80;82.80
48994;DHT22;34804;49.214;12.276;2023-02-19T16:32:02;8.80;82.90
48994;DHT22;34804;49.214;12.276;2023-02-19T16:34:32;8.70;83.40
48994;DHT22;34804;49.214;12.276;2023-02-19T16:37:03;8.70;83.70
48994;DHT22;34804;49.214;12.276;2023-02-19T16:42:34;8.50;83.80
48994;DHT22;34804;49.214;12.276;2023-02-19T16:45:01;8.40;84.10
48994;DHT22;34804;49.214;12.276;2023-02-19T16:47:30;8.30;84.10
48994;DHT22;34804;49.214;12.276;2023-02-19T16:49:59;8.20;84.20
48994;DHT22;34804;49.214;12.276;2023-02-19T16:52:28;8.20;84.40
48994;DHT22;34804;49.214;12.276;2023-02-19T16:54:55;8.10;84.60
48994;DHT22;34804;49.214;12.276;2023-02-19T16:57:22;8.10;84.50
48994;DHT22;34804;49.214;12.276;2023-02-19T16:59:50;8.10;84.80
48994;DHT22;34804;49.214;12.276;2023-02-19T17:02:20;8.00;84.70
48994;DHT22;34804;49.214;12.276;2023-02-19T17:04:48;8.00;85.10
48994;DHT22;34804;49.214;12.276;2023-02-19T17:07:16;7.90;85.30
48994;DHT22;34804;49.214;12.276;2023-02-19T17:09:43;8.10;85.20
48994;DHT22;34804;49.214;12.276;2023-02-19T17:12:12;8.00;85.20
48994;DHT22;34804;49.214;12.276;2023-02-19T17:14:38;8.00;85.10
48994;DHT22;34804;49.214;12.276;2023-02-19T17:17:05;8.10;85.00
48994;DHT22;34804;49.214;12.276;2023-02-19T17:19:32;8.10;84.90
48994;DHT22;34804;49.214;12.276;2023-02-19T17:21:59;8.10;84.80
48994;DHT22;34804;49.214;12.276;2023-02-19T17:24:26;8.10;85.00
48994;DHT22;34804;49.214;12.276;2023-02-19T17:26:53;8.10;85.10
48994;DHT22;34804;49.214;12.276;2023-02-19T17:29:20;8.10;84.90
48994;DHT22;34804;49.214;12.276;2023-02-19T17:31:46;8.10;85.20
48994;DHT22;34804;49.214;12.276;2023-02-19T17:34:13;8.00;85.60
48994;DHT22;34804;49.214;12.276;2023-02-19T17:36:40;8.00;85.30
48994;DHT22;34804;49.214;12.276;2023-02-19T17:39:12;8.10;85.60
48994;DHT22;34804;49.214;12.276;2023-02-19T17:41:42;8.00;85.70